sensor_id;sensor_type;location;lat;lon;timestamp;pressure;altitude;pressure_sealevel;temperature;humidity
74778;BME280;63298;53.164;8.610;2022-11-20T00:00:45;101490.34;;;1.78;77.25
74778;BME280;63298;53.164;8.610;2022-11-20T00:03:12;101487.34;;;1.81;77.23
74778;BME280;63298;53.164;8.610;2022-11-20T00:05:38;101485.97;;;1.85;76.89
74778;BME280;63298;53.164;8.610;2022-11-20T00:08:03;101490.06;;;1.89;77.39
74778;BME280;63298;53.164;8.610;2022-11-20T00:10:29;101482.75;;;1.90;76.58
74778;BME280;63298;53.164;8.610;2022-11-20T00:12:54;101487.03;;;1.92;77.27
74778;BME280;63298;53.164;8.610;2022-11-20T00:15:20;101478.88;;;1.92;77.03
74778;BME280;63298;53.164;8.610;2022-11-20T00:17:46;101481.59;;;1.92;77.06
74778;BME280;63298;53.164;8.610;2022-11-20T00:20:11;101477.84;;;1.93;77.30
74778;BME280;63298;53.164;8.610;2022-11-20T00:22:39;101471.53;;;1.93;77.11
74778;BME280;63298;53.164;8.610;2022-11-20T00:25:05;101470.03;;;1.90;77.56
74778;BME280;63298;53.164;8.610;2022-11-20T00:27:30;101479.19;;;1.89;77.19
74778;BME280;63298;53.164;8.610;2022-11-20T00:29:56;101487.50;;;1.88;77.63
74778;BME280;63298;53.164;8.610;2022-11-20T00:32:22;101479.53;;;1.86;77.10
74778;BME280;63298;53.164;8.610;2022-11-20T00:34:47;101484.97;;;1.86;77.87
74778;BME280;63298;53.164;8.610;2022-11-20T00:37:12;101479.84;;;1.83;77.84
74778;BME280;63298;53.164;8.610;2022-11-20T00:39:38;101479.84;;;1.83;77.86
74778;BME280;63298;53.164;8.610;2022-11-20T00:42:03;101478.31;;;1.81;78.17
74778;BME280;63298;53.164;8.610;2022-11-20T00:44:29;101483.75;;;1.81;77.85
74778;BME280;63298;53.164;8.610;2022-11-20T00:46:55;101480.19;;;1.80;77.21
74778;BME280;63298;53.164;8.610;2022-11-20T00:49:20;101477.47;;;1.80;77.48
74778;BME280;63298;53.164;8.610;2022-11-20T00:51:46;101481.91;;;1.81;78.07
74778;BME280;63298;53.164;8.610;2022-11-20T00:54:11;101477.81;;;1.77;77.69
74778;BME280;63298;53.164;8.610;2022-11-20T00:56:37;101472.31;;;1.69;78.23
74778;BME280;63298;53.164;8.610;2022-11-20T00:59:02;101473.31;;;1.68;78.15
74778;BME280;63298;53.164;8.610;2022-11-20T01:01:29;101465.00;;;1.69;78.14
74778;BME280;63298;53.164;8.610;2022-11-20T01:03:56;101471.31;;;1.70;78.34
74778;BME280;63298;53.164;8.610;2022-11-20T01:06:28;101470.59;;;1.68;78.69
74778;BME280;63298;53.164;8.610;2022-11-20T01:08:57;101474.38;;;1.67;78.27
74778;BME280;63298;53.164;8.610;2022-11-20T01:11:25;101472.50;;;1.67;78.59
74778;BME280;63298;53.164;8.610;2022-11-20T01:13:52;101470.59;;;1.68;78.60
74778;BME280;63298;53.164;8.610;2022-11-20T01:16:24;101469.94;;;1.66;78.60
74778;BME280;63298;53.164;8.610;2022-11-20T01:18:52;101457.34;;;1.65;78.63
74778;BME280;63298;53.164;8.610;2022-11-20T01:21:26;101451.06;;;1.64;77.99
74778;BME280;63298;53.164;8.610;2022-11-20T01:23:53;101450.56;;;1.69;78.62
74778;BME280;63298;53.164;8.610;2022-11-20T01:26:20;101462.13;;;1.71;78.27
74778;BME280;63298;53.164;8.610;2022-11-20T01:28:47;101465.53;;;1.73;78.45
74778;BME280;63298;53.164;8.610;2022-11-20T01:31:18;101453.28;;;1.69;78.29
74778;BME280;63298;53.164;8.610;2022-11-20T01:33:46;101447.16;;;1.67;78.60
74778;BME280;63298;53.164;8.610;2022-11-20T01:36:12;101447.16;;;1.67;78.54
74778;BME280;63298;53.164;8.610;2022-11-20T01:38:38;101448.34;;;1.64;78.65
74778;BME280;63298;53.164;8.610;2022-11-20T01:41:04;101436.25;;;1.59;78.47
74778;BME280;63298;53.164;8.610;2022-11-20T01:43:31;101437.28;;;1.58;78.92
74778;BME280;63298;53.164;8.610;2022-11-20T01:46:14;101435.56;;;1.57;78.43
74778;BME280;63298;53.164;8.610;2022-11-20T01:51:29;101435.03;;;1.53;79.52
74778;BME280;63298;53.164;8.610;2022-11-20T01:54:01;101428.28;;;1.57;78.97
74778;BME280;63298;53.164;8.610;2022-11-20T01:56:30;101424.72;;;1.57;79.23
74778;BME280;63298;53.164;8.610;2022-11-20T01:58:58;101422.00;;;1.57;79.08
74778;BME280;63298;53.164;8.610;2022-11-20T02:01:25;101418.94;;;1.60;79.10
74778;BME280;63298;53.164;8.610;2022-11-20T02:03:50;101417.75;;;1.62;79.43
74778;BME280;63298;53.164;8.610;2022-11-20T02:09:06;101410.78;;;1.60;78.94
74778;BME280;63298;53.164;8.610;2022-11-20T02:11:31;101411.47;;;1.62;78.86
74778;BME280;63298;53.164;8.610;2022-11-20T02:13:58;101405.34;;;1.60;78.97
74778;BME280;63298;53.164;8.610;2022-11-20T02:16:30;101402.28;;;1.63;79.35
74778;BME280;63298;53.164;8.610;2022-11-20T02:19:04;101409.41;;;1.64;80.36
74778;BME280;63298;53.164;8.610;2022-11-20T02:21:37;101406.03;;;1.62;79.27
74778;BME280;63298;53.164;8.610;2022-11-20T02:26:39;101405.50;;;1.58;80.16
74778;BME280;63298;53.164;8.610;2022-11-20T02:29:06;101400.25;;;1.57;80.03
74778;BME280;63298;53.164;8.610;2022-11-20T02:31:36;101400.25;;;1.57;80.61
74778;BME280;63298;53.164;8.610;2022-11-20T02:34:03;101402.09;;;1.56;79.97
74778;BME280;63298;53.164;8.610;2022-11-20T02:36:32;101397.31;;;1.50;81.31
74778;BME280;63298;53.164;8.610;2022-11-20T02:38:58;101401.25;;;1.56;80.04
74778;BME280;63298;53.164;8.610;2022-11-20T02:41:34;101394.63;;;1.58;79.30
74778;BME280;63298;53.164;8.610;2022-11-20T02:44:00;101399.25;;;1.66;79.07
74778;BME280;63298;53.164;8.610;2022-11-20T02:46:26;101388.22;;;1.67;79.78
74778;BME280;63298;53.164;8.610;2022-11-20T02:48:51;101390.75;;;1.69;79.62
74778;BME280;63298;53.164;8.610;2022-11-20T02:51:17;101389.03;;;1.68;79.41
74778;BME280;63298;53.164;8.610;2022-11-20T02:53:42;101384.63;;;1.67;79.98
74778;BME280;63298;53.164;8.610;2022-11-20T02:56:08;101384.94;;;1.64;79.76
74778;BME280;63298;53.164;8.610;2022-11-20T02:58:34;101382.94;;;1.66;79.89
74778;BME280;63298;53.164;8.610;2022-11-20T03:00:59;101382.44;;;1.70;79.29
74778;BME280;63298;53.164;8.610;2022-11-20T03:03:25;101388.22;;;1.76;78.75
74778;BME280;63298;53.164;8.610;2022-11-20T03:05:50;101383.28;;;1.79;78.70
74778;BME280;63298;53.164;8.610;2022-11-20T03:08:16;101380.25;;;1.82;78.84
74778;BME280;63298;53.164;8.610;2022-11-20T03:10:42;101373.97;;;1.82;79.44
74778;BME280;63298;53.164;8.610;2022-11-20T03:13:07;101371.41;;;1.80;79.43
74778;BME280;63298;53.164;8.610;2022-11-20T03:15:33;101365.97;;;1.80;78.82
74778;BME280;63298;53.164;8.610;2022-11-20T03:17:58;101364.94;;;1.81;79.02
74778;BME280;63298;53.164;8.610;2022-11-20T03:20:24;101356.28;;;1.86;78.51
74778;BME280;63298;53.164;8.610;2022-11-20T03:22:49;101354.94;;;1.90;78.44
74778;BME280;63298;53.164;8.610;2022-11-20T03:25:15;101356.78;;;1.89;78.86
74778;BME280;63298;53.164;8.610;2022-11-20T03:27:40;101356.13;;;1.87;78.49
74778;BME280;63298;53.164;8.610;2022-11-20T03:30:06;101358.16;;;1.85;78.73
74778;BME280;63298;53.164;8.610;2022-11-20T03:32:33;101348.28;;;1.84;79.75
74778;BME280;63298;53.164;8.610;2022-11-20T03:34:58;101353.72;;;1.84;78.92
74778;BME280;63298;53.164;8.610;2022-11-20T03:37:24;101351.69;;;1.86;78.92
74778;BME280;63298;53.164;8.610;2022-11-20T03:39:50;101355.78;;;1.90;78.65
74778;BME280;63298;53.164;8.610;2022-11-20T03:42:16;101351.84;;;1.93;78.69
74778;BME280;63298;53.164;8.610;2022-11-20T03:44:43;101353.56;;;1.94;78.77
74778;BME280;63298;53.164;8.610;2022-11-20T03:47:09;101355.09;;;1.96;78.74
74778;BME280;63298;53.164;8.610;2022-11-20T03:49:35;101346.75;;;1.98;78.91
74778;BME280;63298;53.164;8.610;2022-11-20T03:52:01;101343.72;;;2.01;78.92
74778;BME280;63298;53.164;8.610;2022-11-20T03:54:28;101340.16;;;2.00;78.12
74778;BME280;63298;53.164;8.610;2022-11-20T03:56:54;101342.72;;;2.02;77.91
74778;BME280;63298;53.164;8.610;2022-11-20T03:59:20;101351.53;;;2.04;78.33
74778;BME280;63298;53.164;8.610;2022-11-20T04:01:47;101340.66;;;2.04;78.43
74778;BME280;63298;53.164;8.610;2022-11-20T04:04:13;101323.81;;;2.00;78.51
74778;BME280;63298;53.164;8.610;2022-11-20T04:06:39;101311.06;;;2.01;77.82
74778;BME280;63298;53.164;8.610;2022-11-20T04:09:06;101307.16;;;2.03;78.29
74778;BME280;63298;53.164;8.610;2022-11-20T04:11:34;101326.88;;;2.05;78.13
74778;BME280;63298;53.164;8.610;2022-11-20T04:14:04;101339.13;;;2.01;78.30
74778;BME280;63298;53.164;8.610;2022-11-20T04:16:32;101342.38;;;1.97;78.71
74778;BME280;63298;53.164;8.610;2022-11-20T04:18:59;101331.66;;;1.95;78.25
74778;BME280;63298;53.164;8.610;2022-11-20T04:21:26;101337.25;;;1.94;78.20
74778;BME280;63298;53.164;8.610;2022-11-20T04:23:54;101333.00;;;1.91;78.52
74778;BME280;63298;53.164;8.610;2022-11-20T04:26:25;101335.03;;;1.81;79.27
74778;BME280;63298;53.164;8.610;2022-11-20T04:28:51;101339.63;;;1.81;78.52
74778;BME280;63298;53.164;8.610;2022-11-20T04:31:20;101332.47;;;1.80;79.08
74778;BME280;63298;53.164;8.610;2022-11-20T04:33:48;101316.31;;;1.78;79.08
74778;BME280;63298;53.164;8.610;2022-11-20T04:36:19;101324.47;;;1.78;78.83
74778;BME280;63298;53.164;8.610;2022-11-20T04:38:46;101318.53;;;1.83;78.99
74778;BME280;63298;53.164;8.610;2022-11-20T04:41:17;101321.25;;;1.83;78.99
74778;BME280;63298;53.164;8.610;2022-11-20T04:43:51;101319.06;;;1.86;78.07
74778;BME280;63298;53.164;8.610;2022-11-20T04:46:18;101310.56;;;1.89;78.16
74778;BME280;63298;53.164;8.610;2022-11-20T04:48:44;101318.72;;;1.89;78.79
74778;BME280;63298;53.164;8.610;2022-11-20T04:51:10;101325.50;;;1.85;78.76
74778;BME280;63298;53.164;8.610;2022-11-20T04:53:35;101313.28;;;1.81;79.09
74778;BME280;63298;53.164;8.610;2022-11-20T04:56:09;101320.41;;;1.82;78.94
74778;BME280;63298;53.164;8.610;2022-11-20T04:58:35;101321.78;;;1.86;78.71
74778;BME280;63298;53.164;8.610;2022-11-20T05:01:10;101312.41;;;1.89;78.60
74778;BME280;63298;53.164;8.610;2022-11-20T05:03:36;101320.91;;;1.94;78.36
74778;BME280;63298;53.164;8.610;2022-11-20T05:06:04;101312.44;;;1.97;78.27
74778;BME280;63298;53.164;8.610;2022-11-20T05:08:30;101311.59;;;1.96;77.94
74778;BME280;63298;53.164;8.610;2022-11-20T05:11:04;101317.88;;;1.97;78.15
74778;BME280;63298;53.164;8.610;2022-11-20T05:13:30;101308.34;;;2.01;78.21
74778;BME280;63298;53.164;8.610;2022-11-20T05:15:55;101306.47;;;2.01;78.32
74778;BME280;63298;53.164;8.610;2022-11-20T05:18:25;101322.13;;;1.99;78.59
74778;BME280;63298;53.164;8.610;2022-11-20T05:20:55;101312.25;;;1.90;78.38
74778;BME280;63298;53.164;8.610;2022-11-20T05:23:20;101311.56;;;1.88;78.85
74778;BME280;63298;53.164;8.610;2022-11-20T05:25:51;101309.69;;;1.89;79.09
74778;BME280;63298;53.164;8.610;2022-11-20T05:28:17;101305.59;;;1.93;78.64
74778;BME280;63298;53.164;8.610;2022-11-20T05:30:43;101306.47;;;1.93;78.58
74778;BME280;63298;53.164;8.610;2022-11-20T05:33:08;101306.66;;;1.92;78.90
74778;BME280;63298;53.164;8.610;2022-11-20T05:35:34;101310.91;;;1.86;79.07
74778;BME280;63298;53.164;8.610;2022-11-20T05:37:59;101308.19;;;1.86;78.88
74778;BME280;63298;53.164;8.610;2022-11-20T05:40:25;101295.94;;;1.90;79.07
74778;BME280;63298;53.164;8.610;2022-11-20T05:42:50;101296.44;;;1.94;78.78
74778;BME280;63298;53.164;8.610;2022-11-20T05:45:16;101296.97;;;1.97;78.68
74778;BME280;63298;53.164;8.610;2022-11-20T05:47:41;101297.97;;;1.96;78.84
74778;BME280;63298;53.164;8.610;2022-11-20T05:50:07;101296.13;;;1.97;78.69
74778;BME280;63298;53.164;8.610;2022-11-20T05:52:33;101284.03;;;1.99;78.67
74778;BME280;63298;53.164;8.610;2022-11-20T05:54:58;101282.66;;;2.03;78.47
74778;BME280;63298;53.164;8.610;2022-11-20T05:57:24;101279.63;;;2.06;78.32
74778;BME280;63298;53.164;8.610;2022-11-20T05:59:50;101277.41;;;2.10;78.30
74778;BME280;63298;53.164;8.610;2022-11-20T06:02:16;101267.00;;;2.13;78.09
74778;BME280;63298;53.164;8.610;2022-11-20T06:04:41;101272.28;;;2.15;78.17
74778;BME280;63298;53.164;8.610;2022-11-20T06:07:06;101269.41;;;2.16;78.15
74778;BME280;63298;53.164;8.610;2022-11-20T06:09:32;101263.78;;;2.18;78.47
74778;BME280;63298;53.164;8.610;2022-11-20T06:11:57;101264.63;;;2.18;77.92
74778;BME280;63298;53.164;8.610;2022-11-20T06:14:23;101263.59;;;2.20;77.71
74778;BME280;63298;53.164;8.610;2022-11-20T06:16:48;101253.09;;;2.16;77.55
74778;BME280;63298;53.164;8.610;2022-11-20T06:19:14;101258.31;;;2.18;78.11
74778;BME280;63298;53.164;8.610;2022-11-20T06:21:39;101271.09;;;2.17;77.76
74778;BME280;63298;53.164;8.610;2022-11-20T06:24:05;101282.31;;;2.14;78.22
74778;BME280;63298;53.164;8.610;2022-11-20T06:26:31;101276.19;;;2.12;78.10
74778;BME280;63298;53.164;8.610;2022-11-20T06:28:56;101278.09;;;2.12;78.03
74778;BME280;63298;53.164;8.610;2022-11-20T06:31:23;101279.25;;;2.09;78.24
74778;BME280;63298;53.164;8.610;2022-11-20T06:33:50;101272.13;;;2.08;78.30
74778;BME280;63298;53.164;8.610;2022-11-20T06:36:18;101264.97;;;2.07;78.58
74778;BME280;63298;53.164;8.610;2022-11-20T06:38:44;101263.94;;;2.08;78.60
74778;BME280;63298;53.164;8.610;2022-11-20T06:41:18;101271.25;;;2.08;78.70
74778;BME280;63298;53.164;8.610;2022-11-20T06:43:45;101258.34;;;2.10;78.25
74778;BME280;63298;53.164;8.610;2022-11-20T06:46:12;101250.88;;;2.12;78.12
74778;BME280;63298;53.164;8.610;2022-11-20T06:48:39;101238.94;;;2.13;78.60
74778;BME280;63298;53.164;8.610;2022-11-20T06:51:06;101233.50;;;2.13;78.24
74778;BME280;63298;53.164;8.610;2022-11-20T06:53:32;101237.06;;;2.13;78.11
74778;BME280;63298;53.164;8.610;2022-11-20T06:55:57;101226.56;;;2.10;78.27
74778;BME280;63298;53.164;8.610;2022-11-20T06:58:23;101243.03;;;2.09;78.44
74778;BME280;63298;53.164;8.610;2022-11-20T07:00:51;101259.38;;;2.01;77.99
74778;BME280;63298;53.164;8.610;2022-11-20T07:03:17;101265.16;;;1.98;77.82
74778;BME280;63298;53.164;8.610;2022-11-20T07:05:42;101256.00;;;1.91;77.83
74778;BME280;63298;53.164;8.610;2022-11-20T07:08:08;101255.16;;;1.82;78.17
74778;BME280;63298;53.164;8.610;2022-11-20T07:10:35;101269.75;;;1.81;78.15
74778;BME280;63298;53.164;8.610;2022-11-20T07:13:01;101270.09;;;1.78;78.85
74778;BME280;63298;53.164;8.610;2022-11-20T07:15:28;101273.00;;;1.77;78.28
74778;BME280;63298;53.164;8.610;2022-11-20T07:17:53;101265.84;;;1.76;78.33
74778;BME280;63298;53.164;8.610;2022-11-20T07:20:19;101262.78;;;1.70;78.77
74778;BME280;63298;53.164;8.610;2022-11-20T07:22:44;101256.50;;;1.70;78.97
74778;BME280;63298;53.164;8.610;2022-11-20T07:25:10;101261.78;;;1.71;78.79
74778;BME280;63298;53.164;8.610;2022-11-20T07:27:36;101263.97;;;1.68;78.83
74778;BME280;63298;53.164;8.610;2022-11-20T07:30:02;101259.72;;;1.65;78.75
74778;BME280;63298;53.164;8.610;2022-11-20T07:32:28;101273.16;;;1.67;78.49
74778;BME280;63298;53.164;8.610;2022-11-20T07:34:54;101276.03;;;1.65;78.41
74778;BME280;63298;53.164;8.610;2022-11-20T07:37:19;101266.88;;;1.66;78.76
74778;BME280;63298;53.164;8.610;2022-11-20T07:39:45;101262.28;;;1.67;78.68
74778;BME280;63298;53.164;8.610;2022-11-20T07:42:11;101267.88;;;1.65;79.22
74778;BME280;63298;53.164;8.610;2022-11-20T07:44:37;101265.50;;;1.62;79.44
74778;BME280;63298;53.164;8.610;2022-11-20T07:47:03;101266.69;;;1.60;79.21
74778;BME280;63298;53.164;8.610;2022-11-20T07:49:28;101261.25;;;1.60;79.27
74778;BME280;63298;53.164;8.610;2022-11-20T07:51:54;101266.00;;;1.66;78.96
74778;BME280;63298;53.164;8.610;2022-11-20T07:54:20;101256.16;;;1.57;79.70
74778;BME280;63298;53.164;8.610;2022-11-20T07:56:47;101257.53;;;1.53;79.87
74778;BME280;63298;53.164;8.610;2022-11-20T07:59:12;101267.03;;;1.57;79.48
74778;BME280;63298;53.164;8.610;2022-11-20T08:01:39;101261.41;;;1.58;79.38
74778;BME280;63298;53.164;8.610;2022-11-20T08:04:05;101260.91;;;1.63;79.46
74778;BME280;63298;53.164;8.610;2022-11-20T08:06:31;101267.03;;;1.65;79.45
74778;BME280;63298;53.164;8.610;2022-11-20T08:08:56;101266.19;;;1.64;79.45
74778;BME280;63298;53.164;8.610;2022-11-20T08:11:22;101270.94;;;1.62;80.35
74778;BME280;63298;53.164;8.610;2022-11-20T08:13:48;101272.63;;;1.63;79.78
74778;BME280;63298;53.164;8.610;2022-11-20T08:16:13;101270.44;;;1.67;79.46
74778;BME280;63298;53.164;8.610;2022-11-20T08:18:39;101263.13;;;1.67;79.48
74778;BME280;63298;53.164;8.610;2022-11-20T08:21:04;101268.72;;;1.74;79.45
74778;BME280;63298;53.164;8.610;2022-11-20T08:23:30;101266.34;;;1.79;79.13
74778;BME280;63298;53.164;8.610;2022-11-20T08:25:55;101264.47;;;1.88;78.99
74778;BME280;63298;53.164;8.610;2022-11-20T08:28:21;101261.94;;;1.94;78.84
74778;BME280;63298;53.164;8.610;2022-11-20T08:30:49;101256.81;;;1.99;78.86
74778;BME280;63298;53.164;8.610;2022-11-20T08:33:14;101265.47;;;2.03;79.00
74778;BME280;63298;53.164;8.610;2022-11-20T08:35:40;101256.00;;;2.07;78.98
74778;BME280;63298;53.164;8.610;2022-11-20T08:38:06;101265.31;;;2.12;78.84
74778;BME280;63298;53.164;8.610;2022-11-20T08:40:32;101272.44;;;2.13;78.32
74778;BME280;63298;53.164;8.610;2022-11-20T08:42:58;101277.56;;;2.08;78.57
74778;BME280;63298;53.164;8.610;2022-11-20T08:45:24;101282.00;;;2.09;78.71
74778;BME280;63298;53.164;8.610;2022-11-20T08:47:49;101276.53;;;2.09;79.18
74778;BME280;63298;53.164;8.610;2022-11-20T08:50:15;101274.84;;;2.08;78.71
74778;BME280;63298;53.164;8.610;2022-11-20T08:52:41;101278.09;;;2.12;79.05
74778;BME280;63298;53.164;8.610;2022-11-20T08:55:08;101267.00;;;2.13;78.41
74778;BME280;63298;53.164;8.610;2022-11-20T08:57:35;101280.63;;;2.13;78.88
74778;BME280;63298;53.164;8.610;2022-11-20T09:00:01;101279.59;;;2.14;78.55
74778;BME280;63298;53.164;8.610;2022-11-20T09:02:26;101288.78;;;2.13;78.96
74778;BME280;63298;53.164;8.610;2022-11-20T09:04:52;101277.03;;;2.13;79.01
74778;BME280;63298;53.164;8.610;2022-11-20T09:07:17;101273.81;;;2.09;78.66
74778;BME280;63298;53.164;8.610;2022-11-20T09:09:43;101281.28;;;2.07;79.14
74778;BME280;63298;53.164;8.610;2022-11-20T09:12:08;101284.53;;;2.03;79.31
74778;BME280;63298;53.164;8.610;2022-11-20T09:14:34;101292.53;;;2.04;78.86
74778;BME280;63298;53.164;8.610;2022-11-20T09:16:59;101277.56;;;2.08;78.88
74778;BME280;63298;53.164;8.610;2022-11-20T09:19:25;101278.75;;;2.14;79.16
74778;BME280;63298;53.164;8.610;2022-11-20T09:21:51;101276.03;;;2.06;78.93
74778;BME280;63298;53.164;8.610;2022-11-20T09:24:16;101273.66;;;2.03;79.16
74778;BME280;63298;53.164;8.610;2022-11-20T09:26:42;101277.91;;;2.05;78.90
74778;BME280;63298;53.164;8.610;2022-11-20T09:29:07;101282.50;;;2.05;78.90
74778;BME280;63298;53.164;8.610;2022-11-20T09:31:33;101283.50;;;2.04;78.95
74778;BME280;63298;53.164;8.610;2022-11-20T09:33:58;101288.63;;;2.07;78.83
74778;BME280;63298;53.164;8.610;2022-11-20T09:36:24;101278.94;;;2.04;79.44
74778;BME280;63298;53.164;8.610;2022-11-20T09:38:49;101283.00;;;2.00;79.50
74778;BME280;63298;53.164;8.610;2022-11-20T09:55:47;101268.22;;;2.03;80.11
74778;BME280;63298;53.164;8.610;2022-11-20T09:58:50;101259.53;;;2.07;80.28
74778;BME280;63298;53.164;8.610;2022-11-20T10:01:21;101258.88;;;2.05;80.49
74778;BME280;63298;53.164;8.610;2022-11-20T10:04:12;101259.19;;;2.10;80.46
74778;BME280;63298;53.164;8.610;2022-11-20T10:06:49;101260.38;;;2.16;80.54
74778;BME280;63298;53.164;8.610;2022-11-20T10:09:29;101251.88;;;2.19;79.48
74778;BME280;63298;53.164;8.610;2022-11-20T10:28:43;101243.00;;;2.41;79.35
74778;BME280;63298;53.164;8.610;2022-11-20T10:30:41;101240.75;;;2.45;79.25
74778;BME280;63298;53.164;8.610;2022-11-20T10:35:42;101236.34;;;2.44;79.33
74778;BME280;63298;53.164;8.610;2022-11-20T10:38:17;101232.09;;;2.41;79.54
74778;BME280;63298;53.164;8.610;2022-11-20T10:40:48;101236.69;;;2.41;79.35
74778;BME280;63298;53.164;8.610;2022-11-20T10:43:20;101239.75;;;2.38;79.38
74778;BME280;63298;53.164;8.610;2022-11-20T10:46:00;101236.38;;;2.36;79.55
74778;BME280;63298;53.164;8.610;2022-11-20T10:48:30;101229.91;;;2.37;78.98
74778;BME280;63298;53.164;8.610;2022-11-20T10:51:09;101235.66;;;2.42;78.90
74778;BME280;63298;53.164;8.610;2022-11-20T10:56:40;101228.00;;;2.45;79.08
74778;BME280;63298;53.164;8.610;2022-11-20T10:59:50;101230.53;;;2.47;78.37
74778;BME280;63298;53.164;8.610;2022-11-20T11:02:19;101235.66;;;2.42;78.69
74778;BME280;63298;53.164;8.610;2022-11-20T11:04:51;101221.34;;;2.48;78.74
74778;BME280;63298;53.164;8.610;2022-11-20T11:07:30;101222.56;;;2.45;79.12
74778;BME280;63298;53.164;8.610;2022-11-20T11:09:58;101219.16;;;2.51;79.26
74778;BME280;63298;53.164;8.610;2022-11-20T11:12:26;101220.81;;;2.52;78.75
74778;BME280;63298;53.164;8.610;2022-11-20T11:14:57;101218.28;;;2.51;78.95
74778;BME280;63298;53.164;8.610;2022-11-20T11:20:03;101215.53;;;2.59;78.26
74778;BME280;63298;53.164;8.610;2022-11-20T11:22:33;101212.44;;;2.62;78.13
74778;BME280;63298;53.164;8.610;2022-11-20T11:25:00;101209.00;;;2.68;78.77
74778;BME280;63298;53.164;8.610;2022-11-20T11:27:26;101200.84;;;2.68;78.40
74778;BME280;63298;53.164;8.610;2022-11-20T11:30:11;101208.16;;;2.76;77.59
74778;BME280;63298;53.164;8.610;2022-11-20T11:32:38;101195.00;;;2.79;77.93
74778;BME280;63298;53.164;8.610;2022-11-20T11:35:06;101199.06;;;2.83;78.04
74778;BME280;63298;53.164;8.610;2022-11-20T11:37:43;101184.34;;;2.70;77.31
74778;BME280;63298;53.164;8.610;2022-11-20T11:40:10;101200.47;;;2.79;77.69
74778;BME280;63298;53.164;8.610;2022-11-20T11:42:42;101197.78;;;2.71;76.87
74778;BME280;63298;53.164;8.610;2022-11-20T11:45:14;101196.78;;;2.64;77.20
74778;BME280;63298;53.164;8.610;2022-11-20T11:55:38;101196.31;;;2.52;78.93
74778;BME280;63298;53.164;8.610;2022-11-20T12:01:00;101200.59;;;2.47;78.79
74778;BME280;63298;53.164;8.610;2022-11-20T12:03:36;101198.06;;;2.45;79.01
74778;BME280;63298;53.164;8.610;2022-11-20T12:06:10;101183.44;;;2.46;78.64
74778;BME280;63298;53.164;8.610;2022-11-20T12:08:53;101191.06;;;2.51;78.93
74778;BME280;63298;53.164;8.610;2022-11-20T12:14:31;101181.63;;;2.61;78.69
74778;BME280;63298;53.164;8.610;2022-11-20T12:17:00;101181.28;;;2.65;78.31
74778;BME280;63298;53.164;8.610;2022-11-20T12:19:31;101184.16;;;2.71;78.59
74778;BME280;63298;53.164;8.610;2022-11-20T12:22:45;101180.22;;;2.74;77.64
74778;BME280;63298;53.164;8.610;2022-11-20T12:25:35;101171.88;;;2.75;77.85
74778;BME280;63298;53.164;8.610;2022-11-20T12:28:41;101167.59;;;2.81;76.73
74778;BME280;63298;53.164;8.610;2022-11-20T12:41:43;101161.56;;;2.93;77.40
74778;BME280;63298;53.164;8.610;2022-11-20T12:44:52;101164.59;;;2.98;76.95
74778;BME280;63298;53.164;8.610;2022-11-20T13:00:19;101151.34;;;3.18;77.01
74778;BME280;63298;53.164;8.610;2022-11-20T13:06:16;101142.63;;;3.23;76.82
74778;BME280;63298;53.164;8.610;2022-11-20T13:09:13;101143.09;;;3.26;76.81
74778;BME280;63298;53.164;8.610;2022-11-20T13:18:37;101127.41;;;3.28;76.33
74778;BME280;63298;53.164;8.610;2022-11-20T13:21:37;101130.16;;;3.28;76.60
74778;BME280;63298;53.164;8.610;2022-11-20T13:24:28;101114.88;;;3.19;76.45
74778;BME280;63298;53.164;8.610;2022-11-20T13:30:02;101117.78;;;3.18;76.38
74778;BME280;63298;53.164;8.610;2022-11-20T13:35:40;101129.09;;;3.07;76.62
74778;BME280;63298;53.164;8.610;2022-11-20T13:38:09;101136.56;;;3.13;76.38
74778;BME280;63298;53.164;8.610;2022-11-20T13:43:40;101115.59;;;3.13;76.83
74778;BME280;63298;53.164;8.610;2022-11-20T13:46:39;101124.47;;;3.15;76.86
74778;BME280;63298;53.164;8.610;2022-11-20T13:49:32;101113.06;;;3.12;76.71
74778;BME280;63298;53.164;8.610;2022-11-20T13:52:39;101110.63;;;3.17;76.32
74778;BME280;63298;53.164;8.610;2022-11-20T13:55:38;101128.44;;;3.27;76.68
74778;BME280;63298;53.164;8.610;2022-11-20T14:03:44;101105.78;;;3.27;76.31
74778;BME280;63298;53.164;8.610;2022-11-20T14:06:25;101101.91;;;3.21;76.57
74778;BME280;63298;53.164;8.610;2022-11-20T14:08:51;101095.44;;;3.22;76.48
74778;BME280;63298;53.164;8.610;2022-11-20T14:11:19;101096.28;;;3.23;76.37
74778;BME280;63298;53.164;8.610;2022-11-20T14:14:03;101089.81;;;3.24;76.43
74778;BME280;63298;53.164;8.610;2022-11-20T14:16:31;101084.34;;;3.24;76.35
74778;BME280;63298;53.164;8.610;2022-11-20T14:18:58;101075.03;;;3.18;76.42
74778;BME280;63298;53.164;8.610;2022-11-20T14:21:42;101083.75;;;3.14;76.50
74778;BME280;63298;53.164;8.610;2022-11-20T14:24:11;101073.22;;;3.11;76.35
74778;BME280;63298;53.164;8.610;2022-11-20T14:26:41;101086.09;;;3.17;76.38
74778;BME280;63298;53.164;8.610;2022-11-20T14:29:23;101082.06;;;3.13;76.53
74778;BME280;63298;53.164;8.610;2022-11-20T14:31:54;101081.72;;;3.16;76.67
74778;BME280;63298;53.164;8.610;2022-11-20T14:34:28;101076.78;;;3.11;76.59
74778;BME280;63298;53.164;8.610;2022-11-20T14:37:06;101074.06;;;3.11;76.05
74778;BME280;63298;53.164;8.610;2022-11-20T14:39:37;101061.66;;;3.09;76.20
74778;BME280;63298;53.164;8.610;2022-11-20T14:42:14;101059.66;;;3.02;76.49
74778;BME280;63298;53.164;8.610;2022-11-20T14:44:40;101060.13;;;3.06;76.55
74778;BME280;63298;53.164;8.610;2022-11-20T14:47:11;101051.31;;;3.04;76.51
74778;BME280;63298;53.164;8.610;2022-11-20T14:49:38;101060.97;;;3.07;76.67
74778;BME280;63298;53.164;8.610;2022-11-20T14:54:55;101048.28;;;2.99;76.40
74778;BME280;63298;53.164;8.610;2022-11-20T14:59:48;101059.81;;;3.01;76.54
74778;BME280;63298;53.164;8.610;2022-11-20T15:02:13;101043.94;;;2.90;76.63
74778;BME280;63298;53.164;8.610;2022-11-20T15:04:58;101045.63;;;2.91;77.00